MAPA DE AEROPUERTO

INFORMACIÓN METAR y TAF

METAR FOR LEGE
ADDS - METARS form results

(1850 UTC 27 January 2021)
Data provider http://aviationweather.gov/metar/data/
 
METAR text: LEGE 271830Z 00000KT 9999 FEW050 09/06 Q1020
Conditions at: LEGE (GERONA/COSTA BRA, ES) observed 1830 UTC 27 January 2021
Temperature: 9.0°C (48°F)
Dewpoint: 6.0°C (43°F) [RH = 81%]
Pressure (altimeter): 30.12 inches Hg (1020.0 mb)
Winds: calm
Visibility: 6 or more miles (10+ km)
Ceiling: at least 12,000 feet AGL
Clouds: few clouds at 5000 feet AGL
Weather: no significant weather observed at this time

METAR text: LEGE 271800Z 00000KT 9999 FEW050 09/05 Q1020
Conditions at: LEGE (GERONA/COSTA BRA, ES) observed 1800 UTC 27 January 2021
Temperature: 9.0°C (48°F)
Dewpoint: 5.0°C (41°F) [RH = 76%]
Pressure (altimeter): 30.12 inches Hg (1020.0 mb)
Winds: calm
Visibility: 6 or more miles (10+ km)
Ceiling: at least 12,000 feet AGL
Clouds: few clouds at 5000 feet AGL
Weather: no significant weather observed at this time

Forecast for: LEGE (GERONA/COSTA BRA, ES)
Text: TAF LEGE 271700Z 2718/2818 VRB03KT 9999 FEW050 TX19/2813Z TN06/2806Z
Forecast period: 1800 UTC 27 January 2021 to 1800 UTC 28 January 2021
Forecast type: FROM: standard forecast or significant change
Winds: variable direction winds at 3 MPH (3 knots; 1.5 m/s)
Visibility: 6 or more miles (10+ km)
Ceiling: at least 12,000 feet AGL
Clouds: few clouds at 5000 feet AGL
Weather: no significant weather forecast for this period